Welcome to Northern Hawkes Bay. New Zealand.
PWS Header
      nz Flag



Hit Counter


W3C Valid W3C Valid logo


    Wairoa

Select any of the Stations below to visit their websites.










Historic Data from Weather Underground
Select the location of interest below. Wairoa is the default. Please have patience, this Data is slow to load in.
Northern Hawkes Bay Historical Data
Daily Summary for April 26, 2017 Units:  Metric    English   Both
« Previous Day
Next Day »
Daily Weekly Monthly Yearly Custom
  High: Low: Average:
Temperature: 23.6 °C 10.2 °C 15 °C
Dew Point: 15.1 °C 10.1 °C 12.4 °C
Humidity: 99% 54% 86%
Wind Speed: 11.1km/h 0.0km/h 2.6km/h
Wind Gust: 14.8km/h - -
Wind- - West
Pressure: 1020.9 hPa 1018.2 hPa -
Precipitation: 0.3 mm    
Historical Graphs
 
 
Tabular Data for April 26, 2017
Time Temperature Dew Point Pressure Wind Wind Speed Wind Gust Humidity Rainfall Rate (Hourly) solar
00:01 11.9 °C 11.6 °C 1019.5 hPa NNW 1.1 km/h 6.1 km/h 98% 0.0 mm 0 W/m2
00:06 12.0 °C 11.6 °C 1019.9 hPa Calm   6.1 km/h 97% 0.0 mm 0 W/m2
00:11 12.0 °C 11.6 °C 1019.5 hPa Calm   6.1 km/h 97% 0.0 mm 0 W/m2
00:16 12.1 °C 11.7 °C 1019.9 hPa Calm   5.0 km/h 97% 0.0 mm 0 W/m2
00:21 12.1 °C 11.7 °C 1019.5 hPa Calm     97% 0.0 mm 0 W/m2
00:26 12.1 °C 11.7 °C 1019.9 hPa Calm     97% 0.0 mm 0 W/m2
00:31 12.2 °C 11.7 °C 1019.9 hPa Calm     97% 0.0 mm 0 W/m2
00:36 12.2 °C 11.7 °C 1019.5 hPa Calm   6.1 km/h 97% 0.0 mm 0 W/m2
00:41 12.3 °C 11.8 °C 1019.9 hPa NW 1.1 km/h 8.7 km/h 97% 0.0 mm 0 W/m2
00:46 12.3 °C 11.8 °C 1019.5 hPa Calm   8.7 km/h 97% 0.0 mm 0 W/m2
00:51 12.3 °C 11.8 °C 1019.9 hPa Calm   8.7 km/h 97% 0.0 mm 0 W/m2
00:56 12.3 °C 11.8 °C 1019.5 hPa Calm     97% 0.0 mm 0 W/m2
01:01 12.3 °C 11.8 °C 1019.5 hPa NNE 2.6 km/h 9.7 km/h 97% 0.0 mm 0 W/m2
01:06 12.3 °C 11.8 °C 1019.5 hPa North 5.0 km/h 11.1 km/h 97% 0.0 mm 0 W/m2
01:11 12.3 °C 11.8 °C 1019.5 hPa NNW 2.6 km/h 11.1 km/h 97% 0.0 mm 0 W/m2
01:16 12.2 °C 11.7 °C 1019.5 hPa NNW 1.1 km/h 12.2 km/h 97% 0.0 mm 0 W/m2
01:21 12.2 °C 11.7 °C 1019.5 hPa NNW 5.0 km/h 12.2 km/h 97% 0.0 mm 0 W/m2
01:26 12.2 °C 11.7 °C 1019.5 hPa North 6.1 km/h 12.2 km/h 97% 0.0 mm 0 W/m2
01:31 12.2 °C 11.7 °C 1019.5 hPa North 6.1 km/h 12.2 km/h 97% 0.0 mm 0 W/m2
01:36 12.2 °C 11.7 °C 1019.5 hPa NNW 5.0 km/h 14.8 km/h 97% 0.0 mm 0 W/m2
01:41 12.1 °C 11.7 °C 1019.9 hPa NNW 2.6 km/h 14.8 km/h 97% 0.0 mm 0 W/m2
01:46 12.1 °C 11.7 °C 1019.9 hPa North 11.1 km/h 13.4 km/h 97% 0.0 mm 0 W/m2
01:51 12.1 °C 11.7 °C 1019.5 hPa North 3.5 km/h 13.4 km/h 97% 0.0 mm 0 W/m2
01:56 12.1 °C 11.7 °C 1019.9 hPa Calm   9.7 km/h 97% 0.0 mm 0 W/m2
02:01 12.1 °C 11.7 °C 1019.5 hPa NNW 6.1 km/h 12.2 km/h 97% 0.0 mm 0 W/m2
02:06 12.1 °C 11.7 °C 1019.9 hPa Calm   12.2 km/h 97% 0.0 mm 0 W/m2
02:16 12.1 °C 11.7 °C 1019.9 hPa NNW 3.5 km/h 9.7 km/h 97% 0.0 mm 0 W/m2
02:21 12.1 °C 11.7 °C 1019.9 hPa NNW 3.5 km/h 8.7 km/h 97% 0.0 mm 0 W/m2
02:26 12.1 °C 11.7 °C 1019.5 hPa NNW 3.5 km/h 8.7 km/h 97% 0.0 mm 0 W/m2
02:31 12.0 °C 11.6 °C 1019.5 hPa NNW 1.1 km/h 7.2 km/h 97% 0.0 mm 0 W/m2
02:36 12.0 °C 11.6 °C 1019.5 hPa Calm   7.2 km/h 97% 0.0 mm 0 W/m2
02:41 12.0 °C 11.6 °C 1019.5 hPa NNW 3.5 km/h 7.2 km/h 97% 0.0 mm 0 W/m2
02:46 11.8 °C 11.5 °C 1019.5 hPa NW 3.5 km/h 7.2 km/h 98% 0.0 mm 0 W/m2
02:51 11.7 °C 11.4 °C 1019.5 hPa NNW 3.5 km/h 7.2 km/h 98% 0.0 mm 0 W/m2
02:56 11.7 °C 11.4 °C 1019.5 hPa NNW 2.6 km/h 7.2 km/h 98% 0.0 mm 0 W/m2
03:01 11.6 °C 11.3 °C 1019.5 hPa Calm   6.1 km/h 98% 0.0 mm 0 W/m2
03:06 11.6 °C 11.3 °C 1019.5 hPa Calm   6.1 km/h 98% 0.0 mm 0 W/m2
03:11 11.6 °C 11.3 °C 1019.5 hPa Calm     98% 0.0 mm 0 W/m2
03:16 11.6 °C 11.3 °C 1019.5 hPa Calm     98% 0.0 mm 0 W/m2
03:21 11.6 °C 11.3 °C 1019.5 hPa Calm     98% 0.0 mm 0 W/m2
03:26 11.6 °C 11.3 °C 1019.5 hPa Calm     98% 0.0 mm 0 W/m2
03:31 11.5 °C 11.2 °C 1019.5 hPa Calm   7.2 km/h 98% 0.0 mm 0 W/m2
03:36 11.6 °C 11.3 °C 1019.5 hPa Calm   7.2 km/h 98% 0.0 mm 0 W/m2
03:41 11.5 °C 11.2 °C 1019.2 hPa Calm     98% 0.0 mm 0 W/m2
03:46 11.5 °C 11.2 °C 1019.5 hPa Calm     98% 0.0 mm 0 W/m2
03:51 11.6 °C 11.3 °C 1019.5 hPa Calm   6.1 km/h 98% 0.0 mm 0 W/m2
03:56 11.6 °C 11.3 °C 1019.5 hPa Calm   6.1 km/h 98% 0.0 mm 0 W/m2
04:01 11.6 °C 11.3 °C 1019.5 hPa Calm   6.1 km/h 98% 0.0 mm 0 W/m2
04:06 11.6 °C 11.3 °C 1019.2 hPa NNW 3.5 km/h 8.7 km/h 98% 0.0 mm 0 W/m2
04:11 11.6 °C 11.3 °C 1019.2 hPa NNW 5.0 km/h 8.7 km/h 98% 0.0 mm 0 W/m2
04:16 11.7 °C 11.4 °C 1019.2 hPa NNW 3.5 km/h 12.2 km/h 98% 0.0 mm 0 W/m2
04:21 11.6 °C 11.3 °C 1019.2 hPa NNW 6.1 km/h 12.2 km/h 98% 0.0 mm 0 W/m2
04:26 11.6 °C 11.3 °C 1019.2 hPa North 3.5 km/h 9.7 km/h 98% 0.0 mm 0 W/m2
04:31 11.6 °C 11.3 °C 1019.2 hPa Calm   9.7 km/h 98% 0.0 mm 0 W/m2
04:36 11.6 °C 11.3 °C 1019.2 hPa North 3.5 km/h 9.7 km/h 98% 0.0 mm 0 W/m2
04:41 11.6 °C 11.3 °C 1019.5 hPa North 6.1 km/h 14.8 km/h 98% 0.0 mm 0 W/m2
04:46 11.5 °C 11.2 °C 1019.5 hPa North 1.1 km/h 14.8 km/h 98% 0.0 mm 0 W/m2
04:51 11.5 °C 11.2 °C 1019.2 hPa North 3.5 km/h 11.1 km/h 98% 0.0 mm 0 W/m2
04:56 11.4 °C 11.1 °C 1019.2 hPa NNW 8.7 km/h 13.4 km/h 98% 0.0 mm 0 W/m2
05:01 11.3 °C 11.0 °C 1019.2 hPa North 8.7 km/h 14.8 km/h 98% 0.0 mm 0 W/m2
05:18 11.3 °C 11.0 °C 1019.5 hPa NNW 9.7 km/h 14.8 km/h 98% 0.0 mm 0 W/m2
05:23 11.2 °C 10.9 °C 1019.5 hPa North 7.2 km/h 13.4 km/h 98% 0.0 mm 0 W/m2
05:28 11.2 °C 10.9 °C 1019.5 hPa North 3.5 km/h 13.4 km/h 98% 0.0 mm 0 W/m2
05:33 11.2 °C 10.9 °C 1019.5 hPa NNW 3.5 km/h 13.4 km/h 98% 0.0 mm 0 W/m2
05:38 11.1 °C 10.8 °C 1019.5 hPa NNW 8.7 km/h 13.4 km/h 98% 0.0 mm 0 W/m2
05:43 11.1 °C 10.8 °C 1019.5 hPa NNW 9.7 km/h 14.8 km/h 98% 0.0 mm 0 W/m2
05:48 11.1 °C 10.8 °C 1019.5 hPa NNW 7.2 km/h 14.8 km/h 98% 0.0 mm 0 W/m2
05:53 11.0 °C 10.7 °C 1019.5 hPa North 2.6 km/h 14.8 km/h 98% 0.0 mm 0 W/m2
05:58 11.0 °C 10.7 °C 1019.5 hPa North 3.5 km/h 14.8 km/h 98% 0.0 mm 0 W/m2
06:03 11.0 °C 10.7 °C 1019.5 hPa North 5.0 km/h 14.8 km/h 98% 0.0 mm 0 W/m2
06:08 11.0 °C 10.7 °C 1019.5 hPa North 6.1 km/h 13.4 km/h 98% 0.0 mm 0 W/m2
06:13 11.0 °C 10.7 °C 1019.5 hPa North 8.7 km/h 13.4 km/h 98% 0.0 mm 0 W/m2
06:18 11.0 °C 10.7 °C 1019.5 hPa North 8.7 km/h 13.4 km/h 98% 0.0 mm 0 W/m2
06:23 11.0 °C 10.7 °C 1019.5 hPa North 9.7 km/h 13.4 km/h 98% 0.0 mm 0 W/m2
06:28 10.9 °C 10.8 °C 1019.5 hPa NNW 8.7 km/h 13.4 km/h 99% 0.0 mm 0 W/m2
06:33 10.8 °C 10.7 °C 1019.5 hPa North 7.2 km/h 13.4 km/h 99% 0.0 mm 0 W/m2
06:38 10.8 °C 10.7 °C 1019.5 hPa North 7.2 km/h 14.8 km/h 99% 0.0 mm 0 W/m2
06:43 10.8 °C 10.7 °C 1019.5 hPa North 8.7 km/h 14.8 km/h 99% 0.0 mm 0 W/m2
06:48 10.7 °C 10.6 °C 1019.9 hPa North 6.1 km/h 14.8 km/h 99% 0.0 mm 1 W/m2
06:53 10.7 °C 10.6 °C 1020.2 hPa NNW 5.0 km/h 14.8 km/h 99% 0.0 mm 4 W/m2
06:58 10.7 °C 10.6 °C 1020.2 hPa North 5.0 km/h 13.4 km/h 99% 0.0 mm 5 W/m2
07:03 10.6 °C 10.4 °C 1020.2 hPa North 8.7 km/h 13.4 km/h 99% 0.0 mm 7 W/m2
07:08 10.6 °C 10.4 °C 1020.2 hPa North 9.7 km/h 13.4 km/h 99% 0.0 mm 9 W/m2
07:13 10.6 °C 10.4 °C 1020.2 hPa Calm   12.2 km/h 99% 0.0 mm 12 W/m2
07:18 10.5 °C 10.3 °C 1020.2 hPa Calm   13.4 km/h 99% 0.0 mm 13 W/m2
07:23 10.4 °C 10.3 °C 1020.2 hPa North 5.0 km/h 13.4 km/h 99% 0.0 mm 15 W/m2
07:28 10.4 °C 10.3 °C 1020.5 hPa North 6.1 km/h 12.2 km/h 99% 0.0 mm 18 W/m2
07:33 10.4 °C 10.3 °C 1020.5 hPa North 1.1 km/h 12.2 km/h 99% 0.0 mm 19 W/m2
07:38 10.3 °C 10.2 °C 1020.5 hPa Calm   8.7 km/h 99% 0.0 mm 23 W/m2
07:43 10.2 °C 10.1 °C 1020.5 hPa Calm   6.1 km/h 99% 0.0 mm 23 W/m2
07:48 10.2 °C 10.1 °C 1020.9 hPa NW 8.7 km/h 11.1 km/h 99% 0.0 mm 48 W/m2
07:53 10.3 °C 10.2 °C 1020.5 hPa NNW 6.1 km/h 11.1 km/h 99% 0.0 mm 145 W/m2
07:58 10.6 °C 10.4 °C 1020.5 hPa NNW 3.5 km/h 11.1 km/h 99% 0.0 mm 169 W/m2
08:03 10.8 °C 10.7 °C 1020.9 hPa NW 5.0 km/h 9.7 km/h 99% 0.0 mm 231 W/m2
08:08 10.9 °C 10.8 °C 1020.9 hPa NNW 2.6 km/h 9.7 km/h 99% 0.3 mm 228 W/m2
08:13 11.1 °C 10.8 °C 1020.9 hPa NNW 6.1 km/h 9.7 km/h 98% 0.3 mm 238 W/m2
08:18 11.3 °C 11.0 °C 1020.9 hPa NW 6.1 km/h 9.7 km/h 98% 0.3 mm 249 W/m2
08:23 11.6 °C 11.3 °C 1020.9 hPa NNW 9.7 km/h 13.4 km/h 98% 0.3 mm 259 W/m2
08:28 11.6 °C 11.3 °C 1020.9 hPa North 3.5 km/h 14.8 km/h 98% 0.3 mm 271 W/m2
08:33 12.0 °C 11.6 °C 1020.9 hPa North 5.0 km/h 14.8 km/h 97% 0.3 mm 285 W/m2
08:38 12.3 °C 11.8 °C 1020.5 hPa NNW 6.1 km/h 13.4 km/h 97% 0.3 mm 299 W/m2
08:43 12.4 °C 11.9 °C 1020.5 hPa NNW 6.1 km/h 13.4 km/h 97% 0.3 mm 307 W/m2
08:48 12.5 °C 12.1 °C 1020.5 hPa NNW 9.7 km/h 14.8 km/h 97% 0.3 mm 316 W/m2
08:53 12.8 °C 12.3 °C 1020.5 hPa North 8.7 km/h 14.8 km/h 97% 0.3 mm 331 W/m2
08:58 13.0 °C 12.8 °C 1020.5 hPa North 3.5 km/h 12.2 km/h 99% 0.3 mm 343 W/m2
09:03 13.2 °C 13.1 °C 1020.5 hPa NNW 8.7 km/h 14.8 km/h 99% 0.3 mm 354 W/m2
09:08 13.4 °C 13.3 °C 1020.5 hPa NNW 7.2 km/h 14.8 km/h 99% 0.0 mm 367 W/m2
09:13 13.6 °C 13.4 °C 1020.9 hPa North 6.1 km/h 13.4 km/h 99% 0.0 mm 299 W/m2
09:18 13.8 °C 13.7 °C 1020.5 hPa North 6.1 km/h 13.4 km/h 99% 0.0 mm 347 W/m2
09:23 14.3 °C 13.5 °C 1020.5 hPa North 6.1 km/h 12.2 km/h 95% 0.0 mm 369 W/m2
09:28 14.6 °C 13.2 °C 1020.5 hPa NNW 6.1 km/h 12.2 km/h 91% 0.0 mm 363 W/m2
09:33 15.0 °C 13.1 °C 1020.5 hPa NNW 7.2 km/h 9.7 km/h 88% 0.0 mm 335 W/m2
09:38 15.2 °C 12.9 °C 1020.5 hPa NNW 6.1 km/h 9.7 km/h 86% 0.0 mm 137 W/m2
09:43 15.3 °C 12.6 °C 1020.5 hPa NNW 6.1 km/h 12.2 km/h 84% 0.0 mm 87 W/m2
09:48 15.6 °C 12.9 °C 1020.5 hPa NNW 9.7 km/h 12.2 km/h 84% 0.0 mm 80 W/m2
09:53 15.7 °C 12.7 °C 1020.5 hPa North 8.7 km/h 13.4 km/h 82% 0.0 mm 72 W/m2
09:58 15.7 °C 12.7 °C 1020.5 hPa North 8.7 km/h 13.4 km/h 82% 0.0 mm 72 W/m2
10:03 16.1 °C 12.4 °C 1020.5 hPa NNW 7.2 km/h 11.1 km/h 79% 0.0 mm 74 W/m2
10:08 16.5 °C 12.8 °C 1020.5 hPa NNW 7.2 km/h 11.1 km/h 79% 0.0 mm 82 W/m2
10:13 16.9 °C 13.2 °C 1020.9 hPa NW 3.5 km/h 9.7 km/h 79% 0.0 mm 96 W/m2
10:18 17.2 °C 12.7 °C 1020.9 hPa NW 5.0 km/h 9.7 km/h 75% 0.0 mm 113 W/m2
10:23 17.6 °C 13.1 °C 1020.9 hPa NW 5.0 km/h 9.7 km/h 75% 0.0 mm 150 W/m2
10:33 17.6 °C 12.9 °C 1020.9 hPa NNW 3.5 km/h 9.7 km/h 74% 0.0 mm 405 W/m2
10:38 18.2 °C 13.7 °C 1020.9 hPa NNW 1.1 km/h 8.7 km/h 75% 0.0 mm 417 W/m2
10:43 19.1 °C 13.3 °C 1020.9 hPa NNE 3.5 km/h 7.2 km/h 69% 0.0 mm 163 W/m2
10:48 18.8 °C 12.8 °C 1020.9 hPa NNW 3.5 km/h 9.7 km/h 68% 0.0 mm 367 W/m2
10:53 18.5 °C 12.5 °C 1020.9 hPa NNW 1.1 km/h 9.7 km/h 68% 0.0 mm 393 W/m2
10:58 18.6 °C 12.8 °C 1020.9 hPa Calm   7.2 km/h 69% 0.0 mm 441 W/m2
11:03 19.3 °C 12.8 °C 1020.9 hPa Calm   7.2 km/h 66% 0.0 mm 422 W/m2
11:08 19.8 °C 13.3 °C 1020.9 hPa NE 1.1 km/h 6.1 km/h 66% 0.0 mm 336 W/m2
11:13 19.6 °C 12.6 °C 1020.5 hPa North 1.1 km/h 7.2 km/h 64% 0.0 mm 473 W/m2
11:18 20.0 °C 12.3 °C 1020.5 hPa North 1.1 km/h 7.2 km/h 61% 0.0 mm 415 W/m2
11:23 20.5 °C 12.5 °C 1020.5 hPa NNE 2.6 km/h 5.0 km/h 60% 0.0 mm 230 W/m2
11:28 20.7 °C 11.6 °C 1020.5 hPa Calm   8.7 km/h 56% 0.0 mm 477 W/m2
11:33 20.6 °C 11.8 °C 1020.5 hPa Calm   8.7 km/h 57% 0.0 mm 476 W/m2
11:38 21.1 °C 12.6 °C 1020.5 hPa Calm   6.1 km/h 58% 0.0 mm 465 W/m2
11:43 21.3 °C 12.2 °C 1020.5 hPa Calm   6.1 km/h 56% 0.0 mm 417 W/m2
11:48 20.9 °C 12.3 °C 1020.2 hPa ENE 3.5 km/h 6.1 km/h 58% 0.0 mm 459 W/m2
11:53 20.8 °C 12.5 °C 1020.2 hPa Calm   7.2 km/h 59% 0.0 mm 437 W/m2
11:58 21.1 °C 12.8 °C 1020.2 hPa Calm   7.2 km/h 59% 0.0 mm 352 W/m2
12:03 20.5 °C 13.7 °C 1020.2 hPa SE 2.6 km/h 13.4 km/h 65% 0.0 mm 394 W/m2
12:24 19.4 °C 14.0 °C 1019.9 hPa Calm   9.7 km/h 71% 0.0 mm 356 W/m2
12:29 19.7 °C 14.1 °C 1019.9 hPa SSE 3.5 km/h 9.7 km/h 70% 0.0 mm 415 W/m2
12:34 20.1 °C 14.0 °C 1019.9 hPa Calm   9.7 km/h 68% 0.0 mm 372 W/m2
12:39 20.2 °C 13.9 °C 1019.9 hPa SE 1.1 km/h 7.2 km/h 67% 0.0 mm 324 W/m2
12:44 20.3 °C 14.0 °C 1019.5 hPa SSE 3.5 km/h 7.2 km/h 67% 0.0 mm 339 W/m2
12:49 20.6 °C 14.3 °C 1019.5 hPa SSE 2.6 km/h 7.2 km/h 67% 0.0 mm 340 W/m2
12:54 20.7 °C 14.4 °C 1019.5 hPa South 6.1 km/h 8.7 km/h 67% 0.0 mm 325 W/m2
12:59 21.0 °C 14.7 °C 1019.5 hPa Calm   8.7 km/h 67% 0.0 mm 379 W/m2
13:04 21.8 °C 14.7 °C 1019.2 hPa Calm   8.7 km/h 64% 0.0 mm 456 W/m2
13:09 22.5 °C 14.6 °C 1019.5 hPa Calm     61% 0.0 mm 278 W/m2
13:14 21.8 °C 14.2 °C 1019.5 hPa ENE 2.6 km/h 8.7 km/h 62% 0.0 mm 322 W/m2
13:19 22.0 °C 13.9 °C 1019.5 hPa Calm   8.7 km/h 60% 0.0 mm 436 W/m2
13:24 22.5 °C 13.8 °C 1019.2 hPa Calm   6.1 km/h 58% 0.0 mm 293 W/m2
13:29 22.7 °C 12.9 °C 1019.2 hPa Calm   6.1 km/h 54% 0.0 mm 381 W/m2
13:34 23.3 °C 14.3 °C 1018.8 hPa East 5.0 km/h 7.2 km/h 57% 0.0 mm 129 W/m2
13:39 22.6 °C 14.4 °C 1018.8 hPa SSE 2.6 km/h 11.1 km/h 60% 0.0 mm 389 W/m2
13:44 22.8 °C 14.4 °C 1018.8 hPa South 2.6 km/h 11.1 km/h 59% 0.0 mm 268 W/m2
13:49 22.4 °C 13.7 °C 1018.8 hPa ESE 5.0 km/h 7.2 km/h 58% 0.0 mm 274 W/m2
13:54 22.3 °C 14.4 °C 1018.8 hPa Calm   7.2 km/h 61% 0.0 mm 322 W/m2
13:59 22.9 °C 15.0 °C 1018.8 hPa ESE 5.0 km/h 8.7 km/h 61% 0.0 mm 277 W/m2
14:04 22.5 °C 14.6 °C 1018.8 hPa SE 3.5 km/h 8.7 km/h 61% 0.0 mm 143 W/m2
14:09 22.2 °C 14.6 °C 1018.8 hPa SE 5.0 km/h 12.2 km/h 62% 0.0 mm 149 W/m2
14:14 22.2 °C 14.8 °C 1018.8 hPa SE 3.5 km/h 12.2 km/h 63% 0.0 mm 89 W/m2
14:19 22.5 °C 15.1 °C 1018.8 hPa Calm   9.7 km/h 63% 0.0 mm 76 W/m2
14:24 22.4 °C 14.8 °C 1018.8 hPa SE 5.0 km/h 9.7 km/h 62% 0.0 mm 72 W/m2
14:29 22.4 °C 14.8 °C 1018.5 hPa SE 2.6 km/h 9.7 km/h 62% 0.0 mm 69 W/m2
14:34 22.4 °C 14.8 °C 1018.5 hPa SE 2.6 km/h 8.7 km/h 62% 0.0 mm 68 W/m2
14:39 22.2 °C 14.6 °C 1018.5 hPa SSE 3.5 km/h 12.2 km/h 62% 0.0 mm 69 W/m2
14:44 22.3 °C 14.9 °C 1018.5 hPa SE 6.1 km/h 12.2 km/h 63% 0.0 mm 69 W/m2
14:49 22.5 °C 15.1 °C 1018.5 hPa SE 1.1 km/h 8.7 km/h 63% 0.0 mm 71 W/m2
14:54 22.4 °C 15.0 °C 1018.5 hPa Calm   9.7 km/h 63% 0.0 mm 71 W/m2
14:59 22.9 °C 15.0 °C 1018.5 hPa SE 2.6 km/h 9.7 km/h 61% 0.0 mm 71 W/m2
15:04 23.1 °C 14.9 °C 1018.5 hPa Calm   8.7 km/h 60% 0.0 mm 73 W/m2
15:14 23.3 °C 14.8 °C 1018.2 hPa Calm   6.1 km/h 59% 0.0 mm 146 W/m2
15:19 23.3 °C 14.6 °C 1018.5 hPa Calm   6.1 km/h 58% 0.0 mm 187 W/m2
15:24 23.6 °C 14.6 °C 1018.5 hPa SSE 1.1 km/h 6.1 km/h 57% 0.0 mm 179 W/m2
15:29 23.5 °C 14.5 °C 1018.5 hPa Calm   6.1 km/h 57% 0.0 mm 170 W/m2
15:35 23.3 °C 14.3 °C 1018.2 hPa ESE 1.1 km/h 6.1 km/h 57% 0.0 mm 160 W/m2
15:40 23.4 °C 14.4 °C 1018.5 hPa Calm   7.2 km/h 57% 0.0 mm 126 W/m2
15:45 23.1 °C 14.1 °C 1018.2 hPa ESE 3.5 km/h 7.2 km/h 57% 0.0 mm 105 W/m2
15:50 22.5 °C 14.1 °C 1018.2 hPa Calm   7.2 km/h 59% 0.0 mm 131 W/m2
15:56 22.0 °C 13.6 °C 1018.2 hPa East 5.0 km/h 11.1 km/h 59% 0.0 mm 86 W/m2
16:01 21.2 °C 13.7 °C 1018.5 hPa East 5.0 km/h 11.1 km/h 62% 0.0 mm 98 W/m2
16:06 21.2 °C 13.9 °C 1018.2 hPa ESE 3.5 km/h 11.1 km/h 63% 0.0 mm 86 W/m2
16:11 21.5 °C 14.2 °C 1018.2 hPa ESE 6.1 km/h 8.7 km/h 63% 0.0 mm 78 W/m2
16:16 20.9 °C 13.8 °C 1018.2 hPa East 6.1 km/h 12.2 km/h 64% 0.0 mm 76 W/m2
16:21 21.0 °C 13.9 °C 1018.2 hPa East 1.1 km/h 12.2 km/h 64% 0.0 mm 78 W/m2
16:26 21.2 °C 13.9 °C 1018.2 hPa East 1.1 km/h 9.7 km/h 63% 0.0 mm 80 W/m2
16:31 21.3 °C 14.0 °C 1018.2 hPa Calm   7.2 km/h 63% 0.0 mm 67 W/m2
16:36 21.9 °C 14.6 °C 1018.2 hPa Calm   7.2 km/h 63% 0.0 mm 52 W/m2
16:41 21.5 °C 13.9 °C 1018.2 hPa Calm   6.1 km/h 62% 0.0 mm 32 W/m2
16:46 20.7 °C 13.9 °C 1018.2 hPa Calm   6.1 km/h 65% 0.0 mm 21 W/m2
16:51 19.8 °C 13.5 °C 1018.2 hPa Calm     67% 0.0 mm 28 W/m2
16:56 19.7 °C 13.9 °C 1018.2 hPa Calm     69% 0.0 mm 31 W/m2
17:01 19.6 °C 13.8 °C 1018.2 hPa Calm     69% 0.0 mm 20 W/m2
17:06 19.1 °C 13.5 °C 1018.2 hPa Calm     70% 0.0 mm 15 W/m2
17:11 18.4 °C 13.3 °C 1018.5 hPa Calm     72% 0.0 mm 13 W/m2
17:16 17.9 °C 13.2 °C 1018.5 hPa Calm     74% 0.0 mm 9 W/m2
17:21 17.5 °C 13.1 °C 1018.5 hPa Calm     75% 0.0 mm 7 W/m2
17:26 17.2 °C 13.3 °C 1018.2 hPa Calm     78% 0.0 mm 4 W/m2
17:31 16.9 °C 13.6 °C 1018.5 hPa Calm     81% 0.0 mm 1 W/m2
17:36 16.7 °C 13.6 °C 1018.5 hPa Calm     82% 0.0 mm 0 W/m2
17:41 16.5 °C 13.4 °C 1018.5 hPa Calm     82% 0.0 mm 0 W/m2
17:46 16.2 °C 13.3 °C 1018.5 hPa Calm     83% 0.0 mm 0 W/m2
17:51 16.0 °C 13.1 °C 1018.5 hPa Calm     83% 0.0 mm 0 W/m2
17:56 15.7 °C 13.2 °C 1018.5 hPa Calm     85% 0.0 mm 0 W/m2
18:01 15.5 °C 13.0 °C 1018.8 hPa Calm     85% 0.0 mm 0 W/m2
18:06 15.5 °C 13.2 °C 1018.8 hPa Calm     86% 0.0 mm 0 W/m2
18:11 15.4 °C 13.3 °C 1018.8 hPa Calm     87% 0.0 mm 0 W/m2
18:16 15.4 °C 13.6 °C 1018.8 hPa Calm     89% 0.0 mm 0 W/m2
18:21 15.3 °C 13.7 °C 1018.8 hPa Calm     90% 0.0 mm 0 W/m2
18:26 15.3 °C 13.8 °C 1018.8 hPa Calm     91% 0.0 mm 0 W/m2
18:31 15.2 °C 13.7 °C 1018.8 hPa Calm     91% 0.0 mm 0 W/m2
18:36 15.1 °C 13.8 °C 1018.8 hPa Calm     92% 0.0 mm 0 W/m2
18:41 14.9 °C 13.8 °C 1018.8 hPa Calm     93% 0.0 mm 0 W/m2
18:46 14.8 °C 13.7 °C 1018.8 hPa Calm     93% 0.0 mm 0 W/m2
18:51 14.7 °C 13.8 °C 1018.8 hPa Calm     94% 0.0 mm 0 W/m2
19:07 14.1 °C 13.2 °C 1018.8 hPa Calm     94% 0.0 mm 0 W/m2
19:12 14.0 °C 13.2 °C 1018.8 hPa Calm     95% 0.0 mm 0 W/m2
19:17 13.8 °C 13.2 °C 1018.8 hPa Calm     96% 0.0 mm 0 W/m2
19:22 13.7 °C 13.1 °C 1018.8 hPa Calm     96% 0.0 mm 0 W/m2
19:27 13.5 °C 12.9 °C 1018.8 hPa Calm     96% 0.0 mm 0 W/m2
19:32 13.4 °C 12.8 °C 1018.8 hPa Calm     96% 0.0 mm 0 W/m2
19:37 13.3 °C 12.8 °C 1018.8 hPa Calm     97% 0.0 mm 0 W/m2
19:42 13.3 °C 12.8 °C 1018.8 hPa Calm   7.2 km/h 97% 0.0 mm 0 W/m2
19:47 13.2 °C 12.7 °C 1018.8 hPa Calm   7.2 km/h 97% 0.0 mm 0 W/m2
19:52 13.2 °C 12.7 °C 1018.8 hPa Calm     97% 0.0 mm 0 W/m2
19:57 13.1 °C 12.7 °C 1018.5 hPa Calm   6.1 km/h 97% 0.0 mm 0 W/m2
20:02 13.1 °C 12.7 °C 1018.8 hPa NW 3.5 km/h 6.1 km/h 97% 0.0 mm 0 W/m2
20:07 13.1 °C 12.7 °C 1018.8 hPa NW 2.6 km/h 6.1 km/h 97% 0.0 mm 0 W/m2
20:12 13.1 °C 12.5 °C 1018.8 hPa NW 3.5 km/h 7.2 km/h 96% 0.0 mm 0 W/m2
20:17 13.1 °C 12.5 °C 1018.8 hPa NW 5.0 km/h 8.7 km/h 96% 0.0 mm 0 W/m2
20:22 13.1 °C 12.5 °C 1018.8 hPa NW 3.5 km/h 8.7 km/h 96% 0.0 mm 0 W/m2
20:27 13.0 °C 12.4 °C 1018.8 hPa NW 5.0 km/h 8.7 km/h 96% 0.0 mm 0 W/m2
20:32 13.0 °C 12.4 °C 1018.8 hPa NW 5.0 km/h 8.7 km/h 96% 0.0 mm 0 W/m2
20:42 13.0 °C 12.4 °C 1019.2 hPa NW 5.0 km/h 8.7 km/h 96% 0.0 mm 0 W/m2
20:47 13.0 °C 12.6 °C 1019.2 hPa Calm   7.2 km/h 97% 0.0 mm 0 W/m2
20:52 13.0 °C 12.6 °C 1019.2 hPa Calm   7.2 km/h 97% 0.0 mm 0 W/m2
20:57 13.0 °C 12.6 °C 1019.2 hPa Calm   3.5 km/h 97% 0.0 mm 0 W/m2
21:02 13.0 °C 12.6 °C 1019.2 hPa North 1.1 km/h 5.0 km/h 97% 0.0 mm 0 W/m2
21:07 13.1 °C 12.7 °C 1019.2 hPa Calm   6.1 km/h 97% 0.0 mm 0 W/m2
21:12 13.1 °C 12.7 °C 1019.2 hPa North 1.1 km/h 6.1 km/h 97% 0.0 mm 0 W/m2
21:17 13.1 °C 12.7 °C 1019.2 hPa Calm   6.1 km/h 97% 0.0 mm 0 W/m2
21:22 13.2 °C 12.7 °C 1019.2 hPa Calm   6.1 km/h 97% 0.0 mm 0 W/m2
21:27 13.2 °C 12.7 °C 1019.5 hPa Calm   6.1 km/h 97% 0.0 mm 0 W/m2
21:32 13.2 °C 12.6 °C 1019.5 hPa Calm   6.1 km/h 96% 0.0 mm 0 W/m2
21:37 13.2 °C 12.6 °C 1019.5 hPa Calm     96% 0.0 mm 0 W/m2
21:42 13.1 °C 12.5 °C 1019.5 hPa Calm     96% 0.0 mm 0 W/m2
21:47 13.0 °C 12.2 °C 1019.5 hPa NNW 2.6 km/h 5.0 km/h 95% 0.0 mm 0 W/m2
21:52 12.9 °C 12.1 °C 1019.5 hPa NNW 2.6 km/h 7.2 km/h 95% 0.0 mm 0 W/m2
21:57 12.9 °C 12.1 °C 1019.5 hPa NNW 3.5 km/h 8.7 km/h 95% 0.0 mm 0 W/m2
22:02 12.7 °C 11.9 °C 1019.5 hPa NNW 2.6 km/h 8.7 km/h 95% 0.0 mm 0 W/m2
22:07 12.5 °C 11.6 °C 1019.2 hPa NNW 3.5 km/h 7.2 km/h 94% 0.0 mm 0 W/m2
22:12 12.4 °C 11.6 °C 1019.2 hPa Calm   7.2 km/h 95% 0.0 mm 0 W/m2
22:17 12.3 °C 11.5 °C 1019.5 hPa Calm   7.2 km/h 95% 0.0 mm 0 W/m2
22:22 12.3 °C 11.5 °C 1019.5 hPa Calm   7.2 km/h 95% 0.0 mm 0 W/m2
22:27 12.2 °C 11.4 °C 1019.2 hPa Calm     95% 0.0 mm 0 W/m2
22:32 12.2 °C 11.6 °C 1019.5 hPa Calm     96% 0.0 mm 0 W/m2
22:37 12.1 °C 11.5 °C 1019.5 hPa Calm     96% 0.0 mm 0 W/m2
22:42 12.0 °C 11.4 °C 1019.2 hPa North 6.1 km/h 7.2 km/h 96% 0.0 mm 0 W/m2
22:47 12.0 °C 11.4 °C 1019.5 hPa Calm   7.2 km/h 96% 0.0 mm 0 W/m2
22:52 12.0 °C 11.6 °C 1019.5 hPa Calm   7.2 km/h 97% 0.0 mm 0 W/m2
22:57 11.8 °C 11.5 °C 1019.2 hPa Calm     98% 0.0 mm 0 W/m2
23:02 11.8 °C 11.5 °C 1019.5 hPa Calm     98% 0.0 mm 0 W/m2
23:07 11.7 °C 11.4 °C 1019.2 hPa Calm     98% 0.0 mm 0 W/m2
23:12 11.6 °C 11.3 °C 1019.5 hPa Calm     98% 0.0 mm 0 W/m2
23:17 11.6 °C 11.3 °C 1019.5 hPa Calm     98% 0.0 mm 0 W/m2
23:22 11.5 °C 11.2 °C 1019.5 hPa Calm     98% 0.0 mm 0 W/m2
23:27 11.5 °C 11.2 °C 1019.5 hPa Calm     98% 0.0 mm 0 W/m2
23:32 11.4 °C 11.1 °C 1019.5 hPa Calm     98% 0.0 mm 0 W/m2
23:37 11.4 °C 11.1 °C 1019.5 hPa Calm     98% 0.0 mm 0 W/m2
23:42 11.3 °C 11.0 °C 1019.5 hPa Calm     98% 0.0 mm 0 W/m2
23:47 11.2 °C 10.9 °C 1019.5 hPa Calm   7.2 km/h 98% 0.0 mm 0 W/m2
23:57 11.1 °C 10.8 °C 1019.5 hPa NNW 6.1 km/h 9.7 km/h 98% 0.0 mm 0 W/m2
Northern Hawkes Bay. New Zealand Historic Data
Compliments of Weather Underground - 2 mb